sensor_id;sensor_type;location;lat;lon;timestamp;pressure;altitude;pressure_sealevel;temperature;humidity
44148;BME280;29810;55.848;37.368;2022-10-30T00:00:27;97318.22;;;10.53;100.00
44148;BME280;29810;55.848;37.368;2022-10-30T00:03:31;97309.66;;;10.51;100.00
44148;BME280;29810;55.848;37.368;2022-10-30T00:06:32;97306.53;;;10.59;100.00
44148;BME280;29810;55.848;37.368;2022-10-30T00:09:34;97302.91;;;10.62;100.00
44148;BME280;29810;55.848;37.368;2022-10-30T00:12:35;97298.72;;;10.59;100.00
44148;BME280;29810;55.848;37.368;2022-10-30T00:15:37;97285.38;;;10.64;100.00
44148;BME280;29810;55.848;37.368;2022-10-30T00:18:38;97289.34;;;10.69;100.00
44148;BME280;29810;55.848;37.368;2022-10-30T00:21:42;97282.56;;;10.67;100.00
44148;BME280;29810;55.848;37.368;2022-10-30T00:24:43;97275.91;;;10.63;100.00
44148;BME280;29810;55.848;37.368;2022-10-30T00:27:45;97271.75;;;10.60;100.00
44148;BME280;29810;55.848;37.368;2022-10-30T00:30:46;97282.97;;;10.60;100.00
44148;BME280;29810;55.848;37.368;2022-10-30T00:33:52;97274.75;;;10.67;100.00
44148;BME280;29810;55.848;37.368;2022-10-30T00:36:54;97277.78;;;10.60;100.00
44148;BME280;29810;55.848;37.368;2022-10-30T00:39:56;97276.62;;;10.65;100.00
44148;BME280;29810;55.848;37.368;2022-10-30T00:42:57;97256.50;;;10.54;100.00
44148;BME280;29810;55.848;37.368;2022-10-30T00:46:25;97261.19;;;10.36;100.00
44148;BME280;29810;55.848;37.368;2022-10-30T00:49:23;97261.25;;;10.34;100.00
44148;BME280;29810;55.848;37.368;2022-10-30T00:52:29;97253.12;;;10.26;100.00
44148;BME280;29810;55.848;37.368;2022-10-30T00:55:44;97255.22;;;10.21;100.00
44148;BME280;29810;55.848;37.368;2022-10-30T00:58:51;97258.66;;;10.21;100.00
44148;BME280;29810;55.848;37.368;2022-10-30T01:01:54;97252.69;;;10.19;100.00
44148;BME280;29810;55.848;37.368;2022-10-30T01:04:56;97249.78;;;10.11;100.00
44148;BME280;29810;55.848;37.368;2022-10-30T01:07:57;97244.03;;;10.06;100.00
44148;BME280;29810;55.848;37.368;2022-10-30T01:11:02;97244.97;;;10.05;100.00
44148;BME280;29810;55.848;37.368;2022-10-30T01:14:05;97246.44;;;10.09;100.00
44148;BME280;29810;55.848;37.368;2022-10-30T01:23:47;97228.84;;;10.25;100.00
44148;BME280;29810;55.848;37.368;2022-10-30T01:30:15;97236.63;;;10.13;100.00
44148;BME280;29810;55.848;37.368;2022-10-30T01:40:09;97225.38;;;9.99;100.00
44148;BME280;29810;55.848;37.368;2022-10-30T01:43:13;97232.78;;;10.05;100.00
44148;BME280;29810;55.848;37.368;2022-10-30T01:46:43;97230.09;;;10.07;100.00
44148;BME280;29810;55.848;37.368;2022-10-30T01:50:03;97229.47;;;10.16;100.00
44148;BME280;29810;55.848;37.368;2022-10-30T01:59:34;97232.06;;;10.03;100.00
44148;BME280;29810;55.848;37.368;2022-10-30T02:02:41;97234.53;;;10.05;100.00
44148;BME280;29810;55.848;37.368;2022-10-30T02:05:47;97239.75;;;10.05;100.00
44148;BME280;29810;55.848;37.368;2022-10-30T02:08:54;97233.31;;;9.98;100.00
44148;BME280;29810;55.848;37.368;2022-10-30T02:11:57;97241.81;;;9.87;100.00
44148;BME280;29810;55.848;37.368;2022-10-30T02:14:59;97244.41;;;9.87;100.00
44148;BME280;29810;55.848;37.368;2022-10-30T02:18:02;97247.63;;;9.90;100.00
44148;BME280;29810;55.848;37.368;2022-10-30T02:21:03;97242.25;;;9.93;100.00
44148;BME280;29810;55.848;37.368;2022-10-30T02:24:05;97251.31;;;10.01;100.00
44148;BME280;29810;55.848;37.368;2022-10-30T02:27:07;97251.66;;;10.09;100.00
44148;BME280;29810;55.848;37.368;2022-10-30T02:30:09;97227.69;;;10.04;100.00
44148;BME280;29810;55.848;37.368;2022-10-30T02:33:11;97243.75;;;10.23;100.00
44148;BME280;29810;55.848;37.368;2022-10-30T02:36:12;97239.91;;;10.29;100.00
44148;BME280;29810;55.848;37.368;2022-10-30T02:39:16;97251.13;;;10.30;99.10
44148;BME280;29810;55.848;37.368;2022-10-30T02:42:18;97224.16;;;10.18;98.54
44148;BME280;29810;55.848;37.368;2022-10-30T02:45:20;97236.56;;;10.27;98.02
44148;BME280;29810;55.848;37.368;2022-10-30T02:48:22;97237.41;;;10.27;97.31
44148;BME280;29810;55.848;37.368;2022-10-30T02:51:23;97241.75;;;10.27;96.96
44148;BME280;29810;55.848;37.368;2022-10-30T02:54:25;97235.63;;;10.28;95.39
44148;BME280;29810;55.848;37.368;2022-10-30T02:57:27;97234.28;;;10.22;95.89
44148;BME280;29810;55.848;37.368;2022-10-30T03:00:28;97215.91;;;10.11;95.62
44148;BME280;29810;55.848;37.368;2022-10-30T03:03:30;97217.16;;;10.05;95.30
44148;BME280;29810;55.848;37.368;2022-10-30T03:06:31;97223.00;;;9.96;95.00
44148;BME280;29810;55.848;37.368;2022-10-30T03:09:33;97226.28;;;9.85;95.67
44148;BME280;29810;55.848;37.368;2022-10-30T03:12:34;97216.69;;;9.73;96.20
44148;BME280;29810;55.848;37.368;2022-10-30T03:15:36;97226.28;;;9.85;95.87
44148;BME280;29810;55.848;37.368;2022-10-30T03:18:40;97223.75;;;9.71;95.88
44148;BME280;29810;55.848;37.368;2022-10-30T03:21:42;97228.63;;;9.63;96.25
44148;BME280;29810;55.848;37.368;2022-10-30T03:24:46;97233.19;;;9.59;95.92
44148;BME280;29810;55.848;37.368;2022-10-30T03:27:48;97244.63;;;9.56;95.24
44148;BME280;29810;55.848;37.368;2022-10-30T03:30:51;97237.31;;;9.49;94.53
44148;BME280;29810;55.848;37.368;2022-10-30T03:33:58;97239.22;;;9.32;93.75
44148;BME280;29810;55.848;37.368;2022-10-30T03:36:59;97235.34;;;9.25;93.70
44148;BME280;29810;55.848;37.368;2022-10-30T03:40:02;97249.94;;;9.13;94.11
44148;BME280;29810;55.848;37.368;2022-10-30T03:43:06;97249.37;;;9.08;94.21
44148;BME280;29810;55.848;37.368;2022-10-30T03:46:08;97242.50;;;9.07;94.50
44148;BME280;29810;55.848;37.368;2022-10-30T03:49:11;97245.66;;;9.12;94.51
44148;BME280;29810;55.848;37.368;2022-10-30T03:52:13;97221.91;;;9.04;93.90
44148;BME280;29810;55.848;37.368;2022-10-30T03:55:14;97232.13;;;9.07;93.94
44148;BME280;29810;55.848;37.368;2022-10-30T03:58:16;97237.06;;;8.97;94.47
44148;BME280;29810;55.848;37.368;2022-10-30T04:01:18;97229.00;;;9.02;94.57
44148;BME280;29810;55.848;37.368;2022-10-30T04:04:20;97232.22;;;9.05;93.35
44148;BME280;29810;55.848;37.368;2022-10-30T04:07:21;97224.03;;;9.11;92.56
44148;BME280;29810;55.848;37.368;2022-10-30T04:10:24;97221.72;;;9.07;92.44
44148;BME280;29810;55.848;37.368;2022-10-30T04:13:26;97232.75;;;9.10;92.69
44148;BME280;29810;55.848;37.368;2022-10-30T04:16:28;97236.00;;;9.14;92.20
44148;BME280;29810;55.848;37.368;2022-10-30T04:19:30;97226.09;;;9.06;91.94
44148;BME280;29810;55.848;37.368;2022-10-30T04:22:32;97217.75;;;9.01;91.29
44148;BME280;29810;55.848;37.368;2022-10-30T04:25:34;97219.69;;;8.98;90.96
44148;BME280;29810;55.848;37.368;2022-10-30T04:28:36;97223.97;;;8.99;90.30
44148;BME280;29810;55.848;37.368;2022-10-30T04:31:38;97219.91;;;8.94;90.08
44148;BME280;29810;55.848;37.368;2022-10-30T04:34:39;97217.50;;;8.91;89.86
44148;BME280;29810;55.848;37.368;2022-10-30T04:37:41;97220.53;;;8.98;89.80
44148;BME280;29810;55.848;37.368;2022-10-30T04:40:44;97219.13;;;8.92;89.77
44148;BME280;29810;55.848;37.368;2022-10-30T04:43:49;97211.09;;;8.83;90.43
44148;BME280;29810;55.848;37.368;2022-10-30T04:46:52;97215.09;;;8.74;91.20
44148;BME280;29810;55.848;37.368;2022-10-30T04:49:53;97228.38;;;8.69;91.11
44148;BME280;29810;55.848;37.368;2022-10-30T04:53:06;97226.03;;;8.65;91.27
44148;BME280;29810;55.848;37.368;2022-10-30T04:56:09;97226.25;;;8.61;91.85
44148;BME280;29810;55.848;37.368;2022-10-30T04:59:11;97224.09;;;8.54;91.77
44148;BME280;29810;55.848;37.368;2022-10-30T05:02:15;97224.66;;;8.59;91.77
44148;BME280;29810;55.848;37.368;2022-10-30T05:05:20;97227.53;;;8.69;90.58
44148;BME280;29810;55.848;37.368;2022-10-30T05:08:24;97223.25;;;8.68;90.28
44148;BME280;29810;55.848;37.368;2022-10-30T05:11:26;97232.16;;;8.78;90.14
44148;BME280;29810;55.848;37.368;2022-10-30T05:14:29;97206.16;;;8.78;88.58
44148;BME280;29810;55.848;37.368;2022-10-30T05:17:31;97212.47;;;8.88;88.41
44148;BME280;29810;55.848;37.368;2022-10-30T05:20:32;97200.78;;;8.95;87.12
44148;BME280;29810;55.848;37.368;2022-10-30T05:23:34;97226.00;;;9.08;86.93
44148;BME280;29810;55.848;37.368;2022-10-30T05:26:36;97213.56;;;8.99;86.82
44148;BME280;29810;55.848;37.368;2022-10-30T05:29:39;97220.53;;;8.98;85.88
44148;BME280;29810;55.848;37.368;2022-10-30T05:32:40;97231.88;;;8.97;85.05
44148;BME280;29810;55.848;37.368;2022-10-30T05:35:42;97227.31;;;9.01;84.35
44148;BME280;29810;55.848;37.368;2022-10-30T05:38:43;97234.37;;;8.99;83.16
44148;BME280;29810;55.848;37.368;2022-10-30T05:41:47;97262.97;;;8.84;82.97
44148;BME280;29810;55.848;37.368;2022-10-30T05:44:49;97262.41;;;8.79;83.63
44148;BME280;29810;55.848;37.368;2022-10-30T05:48:02;97259.16;;;8.47;82.94
44148;BME280;29810;55.848;37.368;2022-10-30T05:51:05;97282.38;;;8.34;81.78
44148;BME280;29810;55.848;37.368;2022-10-30T05:54:09;97287.81;;;8.15;80.19
44148;BME280;29810;55.848;37.368;2022-10-30T05:57:13;97263.31;;;8.04;74.84
44148;BME280;29810;55.848;37.368;2022-10-30T06:00:15;97289.34;;;8.03;75.22
44148;BME280;29810;55.848;37.368;2022-10-30T06:03:16;97295.31;;;7.89;73.81
44148;BME280;29810;55.848;37.368;2022-10-30T06:06:18;97260.34;;;7.80;72.02
44148;BME280;29810;55.848;37.368;2022-10-30T06:09:20;97296.94;;;7.75;68.53
44148;BME280;29810;55.848;37.368;2022-10-30T06:12:22;97277.72;;;7.63;69.59
44148;BME280;29810;55.848;37.368;2022-10-30T06:15:24;97295.00;;;7.63;67.04
44148;BME280;29810;55.848;37.368;2022-10-30T06:18:26;97298.22;;;7.52;66.00
44148;BME280;29810;55.848;37.368;2022-10-30T06:21:28;97307.00;;;7.50;65.96
44148;BME280;29810;55.848;37.368;2022-10-30T06:24:30;97310.59;;;7.47;65.55
44148;BME280;29810;55.848;37.368;2022-10-30T06:27:34;97328.66;;;7.49;66.38
44148;BME280;29810;55.848;37.368;2022-10-30T06:30:37;97328.41;;;7.53;65.29
44148;BME280;29810;55.848;37.368;2022-10-30T06:33:40;97319.47;;;7.43;65.18
44148;BME280;29810;55.848;37.368;2022-10-30T06:36:43;97354.75;;;7.29;65.96
44148;BME280;29810;55.848;37.368;2022-10-30T06:39:45;97344.59;;;7.09;66.09
44148;BME280;29810;55.848;37.368;2022-10-30T06:42:50;97356.19;;;7.02;66.96
44148;BME280;29810;55.848;37.368;2022-10-30T06:45:57;97341.91;;;7.10;67.11
44148;BME280;29810;55.848;37.368;2022-10-30T06:48:59;97350.47;;;7.12;66.98
44148;BME280;29810;55.848;37.368;2022-10-30T06:52:00;97334.22;;;7.09;67.96
44148;BME280;29810;55.848;37.368;2022-10-30T06:55:03;97326.63;;;7.22;67.84
44148;BME280;29810;55.848;37.368;2022-10-30T06:58:08;97330.53;;;7.13;67.71
44148;BME280;29810;55.848;37.368;2022-10-30T07:01:11;97340.69;;;7.18;67.92
44148;BME280;29810;55.848;37.368;2022-10-30T07:04:14;97330.97;;;7.21;67.25
44148;BME280;29810;55.848;37.368;2022-10-30T07:07:18;97329.75;;;7.28;67.41
44148;BME280;29810;55.848;37.368;2022-10-30T07:10:20;97328.63;;;7.01;66.70
44148;BME280;29810;55.848;37.368;2022-10-30T07:13:24;97360.19;;;6.74;66.53
44148;BME280;29810;55.848;37.368;2022-10-30T07:16:26;97331.97;;;6.69;66.19
44148;BME280;29810;55.848;37.368;2022-10-30T07:19:28;97326.53;;;6.74;65.66
44148;BME280;29810;55.848;37.368;2022-10-30T07:22:30;97328.03;;;6.95;64.66
44148;BME280;29810;55.848;37.368;2022-10-30T07:25:33;97322.78;;;7.13;63.16
44148;BME280;29810;55.848;37.368;2022-10-30T07:28:37;97331.63;;;7.09;63.46
44148;BME280;29810;55.848;37.368;2022-10-30T07:31:39;97328.13;;;7.10;62.44
44148;BME280;29810;55.848;37.368;2022-10-30T07:34:41;97305.91;;;7.06;63.05
44148;BME280;29810;55.848;37.368;2022-10-30T07:37:44;97292.75;;;6.93;63.10
44148;BME280;29810;55.848;37.368;2022-10-30T07:40:50;97311.22;;;7.03;63.76
44148;BME280;29810;55.848;37.368;2022-10-30T07:43:52;97308.50;;;6.88;63.65
44148;BME280;29810;55.848;37.368;2022-10-30T07:46:56;97307.88;;;7.01;63.93
44148;BME280;29810;55.848;37.368;2022-10-30T07:49:58;97300.94;;;7.17;63.71
44148;BME280;29810;55.848;37.368;2022-10-30T07:53:00;97301.53;;;7.38;63.14
44148;BME280;29810;55.848;37.368;2022-10-30T07:56:03;97316.09;;;7.41;62.56
44148;BME280;29810;55.848;37.368;2022-10-30T07:59:08;97295.28;;;7.42;62.59
44148;BME280;29810;55.848;37.368;2022-10-30T08:02:09;97306.41;;;7.44;62.32
44148;BME280;29810;55.848;37.368;2022-10-30T08:05:12;97299.78;;;7.55;62.80
44148;BME280;29810;55.848;37.368;2022-10-30T08:08:14;97289.69;;;7.66;62.49
44148;BME280;29810;55.848;37.368;2022-10-30T08:11:16;97307.62;;;7.85;62.41
44148;BME280;29810;55.848;37.368;2022-10-30T08:14:18;97291.47;;;7.96;61.66
44148;BME280;29810;55.848;37.368;2022-10-30T08:17:20;97304.97;;;8.17;61.02
44148;BME280;29810;55.848;37.368;2022-10-30T08:20:22;97288.47;;;8.18;61.05
44148;BME280;29810;55.848;37.368;2022-10-30T08:23:25;97315.78;;;8.40;60.09
44148;BME280;29810;55.848;37.368;2022-10-30T08:26:26;97284.56;;;8.11;60.44
44148;BME280;29810;55.848;37.368;2022-10-30T08:29:28;97294.75;;;8.14;61.02
44148;BME280;29810;55.848;37.368;2022-10-30T08:32:30;97289.47;;;7.85;61.09
44148;BME280;29810;55.848;37.368;2022-10-30T08:35:32;97288.31;;;7.75;61.46
44148;BME280;29810;55.848;37.368;2022-10-30T08:38:34;97272.81;;;7.89;61.27
44148;BME280;29810;55.848;37.368;2022-10-30T08:41:36;97283.62;;;7.66;61.35
44148;BME280;29810;55.848;37.368;2022-10-30T08:44:37;97275.56;;;7.86;61.65
44148;BME280;29810;55.848;37.368;2022-10-30T08:47:41;97279.09;;;7.85;62.00
44148;BME280;29810;55.848;37.368;2022-10-30T08:50:42;97277.38;;;7.70;62.42
44148;BME280;29810;55.848;37.368;2022-10-30T08:53:47;97272.00;;;7.73;62.40
44148;BME280;29810;55.848;37.368;2022-10-30T08:56:49;97282.44;;;7.87;62.05
44148;BME280;29810;55.848;37.368;2022-10-30T08:59:51;97271.25;;;7.87;61.35
44148;BME280;29810;55.848;37.368;2022-10-30T09:02:56;97273.59;;;7.75;62.32
44148;BME280;29810;55.848;37.368;2022-10-30T09:06:04;97255.97;;;7.96;62.02
44148;BME280;29810;55.848;37.368;2022-10-30T09:09:08;97259.72;;;7.76;61.85
44148;BME280;29810;55.848;37.368;2022-10-30T09:12:14;97250.50;;;7.71;62.81
44148;BME280;29810;55.848;37.368;2022-10-30T09:15:17;97245.34;;;7.85;61.43
44148;BME280;29810;55.848;37.368;2022-10-30T09:18:20;97220.66;;;7.63;62.10
44148;BME280;29810;55.848;37.368;2022-10-30T09:21:22;97247.78;;;7.88;62.25
44148;BME280;29810;55.848;37.368;2022-10-30T09:24:24;97244.47;;;8.01;62.27
44148;BME280;29810;55.848;37.368;2022-10-30T09:27:29;97246.81;;;8.05;61.40
44148;BME280;29810;55.848;37.368;2022-10-30T09:30:32;97230.34;;;7.90;61.53
44148;BME280;29810;55.848;37.368;2022-10-30T09:33:35;97221.09;;;7.86;62.22
44148;BME280;29810;55.848;37.368;2022-10-30T09:36:41;97216.53;;;7.75;62.31
44148;BME280;29810;55.848;37.368;2022-10-30T09:39:48;97224.34;;;7.59;62.84
44148;BME280;29810;55.848;37.368;2022-10-30T09:43:02;97219.34;;;7.87;63.39
44148;BME280;29810;55.848;37.368;2022-10-30T09:59:39;97228.19;;;7.99;62.74
44148;BME280;29810;55.848;37.368;2022-10-30T10:02:52;97218.87;;;7.64;64.33
44148;BME280;29810;55.848;37.368;2022-10-30T10:05:58;97228.91;;;7.70;65.19
44148;BME280;29810;55.848;37.368;2022-10-30T10:09:19;97221.03;;;7.72;64.87
44148;BME280;29810;55.848;37.368;2022-10-30T10:16:10;97223.00;;;7.83;65.17
44148;BME280;29810;55.848;37.368;2022-10-30T10:23:01;97240.84;;;7.89;63.81
44148;BME280;29810;55.848;37.368;2022-10-30T10:33:14;97206.97;;;8.06;55.90
44148;BME280;29810;55.848;37.368;2022-10-30T10:49:41;97202.59;;;7.62;53.45
44148;BME280;29810;55.848;37.368;2022-10-30T10:52:55;97187.38;;;7.56;53.18
44148;BME280;29810;55.848;37.368;2022-10-30T10:55:59;97227.31;;;7.37;53.60
44148;BME280;29810;55.848;37.368;2022-10-30T10:59:37;97245.50;;;7.36;55.05
44148;BME280;29810;55.848;37.368;2022-10-30T11:02:49;97254.78;;;6.76;60.82
44148;BME280;29810;55.848;37.368;2022-10-30T11:05:55;97245.06;;;6.30;66.17
44148;BME280;29810;55.848;37.368;2022-10-30T11:09:18;97243.28;;;5.95;69.53
44148;BME280;29810;55.848;37.368;2022-10-30T11:12:26;97252.06;;;5.56;72.19
44148;BME280;29810;55.848;37.368;2022-10-30T11:15:49;97244.59;;;5.50;72.68
44148;BME280;29810;55.848;37.368;2022-10-30T11:18:57;97253.19;;;5.87;71.10
44148;BME280;29810;55.848;37.368;2022-10-30T11:22:03;97248.44;;;5.95;69.92
44148;BME280;29810;55.848;37.368;2022-10-30T11:25:21;97260.47;;;5.96;68.12
44148;BME280;29810;55.848;37.368;2022-10-30T11:31:58;97243.50;;;6.26;66.32
44148;BME280;29810;55.848;37.368;2022-10-30T11:38:19;97263.22;;;6.28;64.93
44148;BME280;29810;55.848;37.368;2022-10-30T11:41:21;97266.88;;;6.42;64.08
44148;BME280;29810;55.848;37.368;2022-10-30T11:44:25;97261.78;;;6.40;61.16
44148;BME280;29810;55.848;37.368;2022-10-30T11:47:34;97269.91;;;6.50;61.88
44148;BME280;29810;55.848;37.368;2022-10-30T11:50:36;97251.00;;;6.48;59.70
44148;BME280;29810;55.848;37.368;2022-10-30T11:53:46;97253.66;;;6.30;59.70
44148;BME280;29810;55.848;37.368;2022-10-30T11:56:49;97230.12;;;6.35;57.85
44148;BME280;29810;55.848;37.368;2022-10-30T11:59:55;97237.50;;;6.25;57.76
44148;BME280;29810;55.848;37.368;2022-10-30T12:02:58;97238.03;;;6.32;56.35
44148;BME280;29810;55.848;37.368;2022-10-30T12:06:17;97251.97;;;6.29;57.67
44148;BME280;29810;55.848;37.368;2022-10-30T12:09:21;97249.59;;;6.42;56.58
44148;BME280;29810;55.848;37.368;2022-10-30T12:12:38;97272.97;;;6.23;57.66
44148;BME280;29810;55.848;37.368;2022-10-30T12:15:42;97254.72;;;6.26;59.41
44148;BME280;29810;55.848;37.368;2022-10-30T12:21:59;97255.63;;;6.25;56.36
44148;BME280;29810;55.848;37.368;2022-10-30T12:25:05;97255.03;;;6.38;57.49
44148;BME280;29810;55.848;37.368;2022-10-30T12:28:28;97269.22;;;6.46;56.44
44148;BME280;29810;55.848;37.368;2022-10-30T12:34:40;97262.56;;;6.58;55.70
44148;BME280;29810;55.848;37.368;2022-10-30T12:37:46;97269.84;;;6.68;53.54
44148;BME280;29810;55.848;37.368;2022-10-30T12:41:20;97260.50;;;6.65;55.16
44148;BME280;29810;55.848;37.368;2022-10-30T12:44:34;97259.56;;;7.00;55.89
44148;BME280;29810;55.848;37.368;2022-10-30T12:48:13;97259.56;;;6.84;53.31
44148;BME280;29810;55.848;37.368;2022-10-30T12:58:30;97264.25;;;6.59;58.75
44148;BME280;29810;55.848;37.368;2022-10-30T13:01:37;97288.25;;;6.45;59.98
44148;BME280;29810;55.848;37.368;2022-10-30T13:04:46;97316.75;;;6.10;62.19
44148;BME280;29810;55.848;37.368;2022-10-30T13:17:58;97315.56;;;4.25;71.03
44148;BME280;29810;55.848;37.368;2022-10-30T13:30:58;97317.28;;;4.04;76.66
44148;BME280;29810;55.848;37.368;2022-10-30T13:38:04;97319.88;;;4.25;76.39
44148;BME280;29810;55.848;37.368;2022-10-30T13:51:55;97343.81;;;4.06;77.64
44148;BME280;29810;55.848;37.368;2022-10-30T14:01:16;97326.50;;;4.10;77.57
44148;BME280;29810;55.848;37.368;2022-10-30T14:04:37;97325.47;;;4.14;78.16
44148;BME280;29810;55.848;37.368;2022-10-30T14:11:16;97319.81;;;3.84;79.01
44148;BME280;29810;55.848;37.368;2022-10-30T14:14:30;97328.88;;;3.72;78.94
44148;BME280;29810;55.848;37.368;2022-10-30T14:17:32;97324.50;;;3.74;79.64
44148;BME280;29810;55.848;37.368;2022-10-30T14:20:33;97315.69;;;3.57;79.29
44148;BME280;29810;55.848;37.368;2022-10-30T14:23:40;97313.66;;;3.65;79.03
44148;BME280;29810;55.848;37.368;2022-10-30T14:26:46;97322.31;;;3.85;78.10
44148;BME280;29810;55.848;37.368;2022-10-30T14:29:49;97323.56;;;3.76;78.42
44148;BME280;29810;55.848;37.368;2022-10-30T14:32:51;97342.66;;;3.71;78.40
44148;BME280;29810;55.848;37.368;2022-10-30T14:39:28;97390.94;;;2.19;85.33
44148;BME280;29810;55.848;37.368;2022-10-30T14:45:44;97389.28;;;1.61;91.12
44148;BME280;29810;55.848;37.368;2022-10-30T14:48:58;97388.31;;;1.35;91.46
44148;BME280;29810;55.848;37.368;2022-10-30T14:55:45;97412.06;;;0.80;93.73
44148;BME280;29810;55.848;37.368;2022-10-30T14:59:08;97414.69;;;0.79;93.88
44148;BME280;29810;55.848;37.368;2022-10-30T15:15:22;97431.44;;;0.92;90.42
44148;BME280;29810;55.848;37.368;2022-10-30T15:18:26;97430.78;;;0.84;87.29
44148;BME280;29810;55.848;37.368;2022-10-30T15:21:29;97439.16;;;0.91;86.97
44148;BME280;29810;55.848;37.368;2022-10-30T15:24:34;97437.41;;;0.93;87.37
44148;BME280;29810;55.848;37.368;2022-10-30T15:27:45;97445.81;;;0.98;87.17
44148;BME280;29810;55.848;37.368;2022-10-30T15:31:07;97446.22;;;0.82;85.99
44148;BME280;29810;55.848;37.368;2022-10-30T15:34:21;97459.56;;;0.95;86.15
44148;BME280;29810;55.848;37.368;2022-10-30T15:37:23;97459.31;;;1.06;85.86
44148;BME280;29810;55.848;37.368;2022-10-30T15:40:25;97458.38;;;1.09;84.87
44148;BME280;29810;55.848;37.368;2022-10-30T15:43:32;97464.03;;;1.22;86.03
44148;BME280;29810;55.848;37.368;2022-10-30T15:46:34;97472.50;;;1.24;84.44
44148;BME280;29810;55.848;37.368;2022-10-30T15:49:38;97470.28;;;1.11;85.26
44148;BME280;29810;55.848;37.368;2022-10-30T15:52:41;97475.63;;;1.04;85.04
44148;BME280;29810;55.848;37.368;2022-10-30T15:55:45;97474.81;;;1.02;84.65
44148;BME280;29810;55.848;37.368;2022-10-30T15:58:58;97478.72;;;1.15;81.89
44148;BME280;29810;55.848;37.368;2022-10-30T16:01:59;97473.19;;;1.30;78.97
44148;BME280;29810;55.848;37.368;2022-10-30T16:05:17;97472.16;;;1.38;78.24
44148;BME280;29810;55.848;37.368;2022-10-30T16:08:23;97473.56;;;1.48;79.36
44148;BME280;29810;55.848;37.368;2022-10-30T16:11:25;97490.41;;;1.58;77.77
44148;BME280;29810;55.848;37.368;2022-10-30T16:14:29;97483.44;;;1.62;78.81
44148;BME280;29810;55.848;37.368;2022-10-30T16:17:33;97475.88;;;1.57;76.88
44148;BME280;29810;55.848;37.368;2022-10-30T16:20:35;97497.31;;;1.56;74.88
44148;BME280;29810;55.848;37.368;2022-10-30T16:23:45;97492.94;;;1.60;74.17
44148;BME280;29810;55.848;37.368;2022-10-30T16:27:01;97493.25;;;1.49;73.65
44148;BME280;29810;55.848;37.368;2022-10-30T16:30:03;97501.19;;;1.40;74.17
44148;BME280;29810;55.848;37.368;2022-10-30T16:33:05;97497.94;;;1.33;74.19
44148;BME280;29810;55.848;37.368;2022-10-30T16:36:08;97496.44;;;1.26;74.48
44148;BME280;29810;55.848;37.368;2022-10-30T16:39:15;97506.72;;;1.26;74.19
44148;BME280;29810;55.848;37.368;2022-10-30T16:42:24;97499.78;;;1.29;74.24
44148;BME280;29810;55.848;37.368;2022-10-30T16:48:34;97500.94;;;1.49;73.21
44148;BME280;29810;55.848;37.368;2022-10-30T16:51:37;97510.28;;;1.52;73.30
44148;BME280;29810;55.848;37.368;2022-10-30T16:54:45;97497.81;;;1.38;73.65
44148;BME280;29810;55.848;37.368;2022-10-30T16:57:53;97498.94;;;1.27;74.34
44148;BME280;29810;55.848;37.368;2022-10-30T17:01:03;97491.53;;;1.17;75.13
44148;BME280;29810;55.848;37.368;2022-10-30T17:04:05;97499.69;;;0.99;76.35
44148;BME280;29810;55.848;37.368;2022-10-30T17:07:27;97485.00;;;1.05;76.80
44148;BME280;29810;55.848;37.368;2022-10-30T17:10:53;97481.28;;;1.15;77.01
44148;BME280;29810;55.848;37.368;2022-10-30T17:13:58;97491.25;;;1.27;76.79
44148;BME280;29810;55.848;37.368;2022-10-30T17:17:02;97496.34;;;1.29;76.32
44148;BME280;29810;55.848;37.368;2022-10-30T17:23:19;97483.94;;;1.12;76.88
44148;BME280;29810;55.848;37.368;2022-10-30T17:26:21;97495.44;;;0.98;77.78
44148;BME280;29810;55.848;37.368;2022-10-30T17:32:43;97503.63;;;0.78;79.52
44148;BME280;29810;55.848;37.368;2022-10-30T17:35:45;97486.94;;;0.62;79.61
44148;BME280;29810;55.848;37.368;2022-10-30T17:38:47;97492.09;;;0.60;80.15
44148;BME280;29810;55.848;37.368;2022-10-30T17:41:49;97489.78;;;0.49;80.51
44148;BME280;29810;55.848;37.368;2022-10-30T17:44:51;97491.38;;;0.55;80.77
44148;BME280;29810;55.848;37.368;2022-10-30T17:47:53;97486.34;;;0.51;81.19
44148;BME280;29810;55.848;37.368;2022-10-30T17:50:55;97470.34;;;0.41;81.44
44148;BME280;29810;55.848;37.368;2022-10-30T17:53:56;97485.78;;;0.38;82.07
44148;BME280;29810;55.848;37.368;2022-10-30T17:56:58;97490.12;;;0.36;82.44
44148;BME280;29810;55.848;37.368;2022-10-30T18:00:00;97478.31;;;0.28;82.97
44148;BME280;29810;55.848;37.368;2022-10-30T18:03:02;97473.22;;;0.27;82.99
44148;BME280;29810;55.848;37.368;2022-10-30T18:06:05;97467.28;;;0.25;83.02
44148;BME280;29810;55.848;37.368;2022-10-30T18:09:09;97467.47;;;0.17;83.53
44148;BME280;29810;55.848;37.368;2022-10-30T18:12:15;97473.44;;;0.18;83.63
44148;BME280;29810;55.848;37.368;2022-10-30T18:15:30;97468.28;;;0.19;83.87
44148;BME280;29810;55.848;37.368;2022-10-30T18:18:32;97475.88;;;0.24;83.67
44148;BME280;29810;55.848;37.368;2022-10-30T18:21:33;97460.84;;;0.08;83.21
44148;BME280;29810;55.848;37.368;2022-10-30T18:24:35;97468.41;;;0.14;83.15
44148;BME280;29810;55.848;37.368;2022-10-30T18:27:36;97463.34;;;0.10;83.43
44148;BME280;29810;55.848;37.368;2022-10-30T18:30:38;97472.00;;;0.06;83.12
44148;BME280;29810;55.848;37.368;2022-10-30T18:33:40;97468.56;;;0.05;82.86
44148;BME280;29810;55.848;37.368;2022-10-30T18:36:47;97461.06;;;-0.01;82.85
44148;BME280;29810;55.848;37.368;2022-10-30T18:39:49;97474.62;;;0.03;82.56
44148;BME280;29810;55.848;37.368;2022-10-30T18:42:51;97465.34;;;-0.03;82.41
44148;BME280;29810;55.848;37.368;2022-10-30T18:45:52;97465.53;;;-0.11;82.58
44148;BME280;29810;55.848;37.368;2022-10-30T18:48:54;97478.16;;;-0.03;82.78
44148;BME280;29810;55.848;37.368;2022-10-30T18:51:55;97474.81;;;-0.05;82.43
44148;BME280;29810;55.848;37.368;2022-10-30T18:54:57;97452.84;;;-0.17;82.59
44148;BME280;29810;55.848;37.368;2022-10-30T18:57:58;97479.13;;;-0.07;82.19